createdAt,value
2022-09-04T00:00:19.419Z,19.40
2022-09-04T00:03:11.526Z,19.40
2022-09-04T00:05:52.414Z,19.30
2022-09-04T00:08:26.528Z,19.20
2022-09-04T00:10:57.134Z,19.30
2022-09-04T00:13:34.768Z,19.30
2022-09-04T00:16:05.255Z,19.20
2022-09-04T00:18:48.675Z,19.30
2022-09-04T00:21:27.487Z,19.30
2022-09-04T00:24:11.676Z,19.30
2022-09-04T00:26:45.680Z,19.30
2022-09-04T00:29:25.513Z,19.30
2022-09-04T00:31:55.293Z,19.30
2022-09-04T00:34:32.570Z,19.30
2022-09-04T00:37:04.875Z,19.20
2022-09-04T00:39:47.608Z,19.20
2022-09-04T00:42:26.895Z,19.20
2022-09-04T00:45:16.589Z,19.20
2022-09-04T00:47:49.298Z,19.20
2022-09-04T00:50:34.539Z,19.10
2022-09-04T00:53:03.021Z,19.10
2022-09-04T00:55:49.919Z,19.10
2022-09-04T00:58:27.598Z,19.10
2022-09-04T01:01:03.631Z,19.10
2022-09-04T01:03:57.541Z,19.10
2022-09-04T01:06:50.593Z,19.10
2022-09-04T01:09:29.768Z,19.10
2022-09-04T01:12:03.643Z,19.10
2022-09-04T01:14:53.018Z,19.10
2022-09-04T01:17:40.508Z,19.10
2022-09-04T01:20:26.548Z,19.10
2022-09-04T01:23:15.597Z,19.10
2022-09-04T01:26:19.002Z,19.10
2022-09-04T01:28:52.754Z,19.00
2022-09-04T01:31:19.805Z,19.00
2022-09-04T01:33:46.939Z,18.90
2022-09-04T01:36:37.903Z,18.90
2022-09-04T01:39:05.007Z,18.80
2022-09-04T01:41:42.593Z,18.70
2022-09-04T01:44:10.849Z,18.70
2022-09-04T01:46:59.988Z,18.70
2022-09-04T01:49:27.497Z,18.70
2022-09-04T01:52:24.658Z,18.70
2022-09-04T01:55:07.638Z,18.70
2022-09-04T01:58:13.815Z,18.60
2022-09-04T02:00:46.262Z,18.60
2022-09-04T02:03:35.633Z,18.60
2022-09-04T02:06:09.419Z,18.70
2022-09-04T02:08:52.709Z,18.70
2022-09-04T02:11:36.943Z,18.60
2022-09-04T02:14:07.069Z,18.60
2022-09-04T02:17:04.598Z,18.60
2022-09-04T02:19:50.115Z,18.60
2022-09-04T02:22:27.435Z,18.60
2022-09-04T02:25:17.939Z,18.50
2022-09-04T02:28:07.840Z,18.50
2022-09-04T02:31:04.659Z,18.50
2022-09-04T02:33:52.612Z,18.50
2022-09-04T02:36:34.177Z,18.50
2022-09-04T02:39:31.572Z,18.40
2022-09-04T02:41:58.838Z,18.40
2022-09-04T02:44:39.158Z,18.40
2022-09-04T02:47:13.835Z,18.40
2022-09-04T02:49:47.853Z,18.30
2022-09-04T02:52:34.137Z,18.30
2022-09-04T02:55:15.619Z,18.30
2022-09-04T02:58:01.697Z,18.20
2022-09-04T03:01:02.693Z,18.30
2022-09-04T03:03:35.143Z,18.30
2022-09-04T03:06:12.614Z,18.30
2022-09-04T03:08:44.138Z,18.30
2022-09-04T03:11:25.733Z,18.30
2022-09-04T03:13:55.739Z,18.30
2022-09-04T03:16:36.933Z,18.30
2022-09-04T03:19:22.489Z,18.30
2022-09-04T03:22:03.787Z,18.30
2022-09-04T03:24:52.573Z,18.30
2022-09-04T03:27:37.833Z,18.30
2022-09-04T03:30:10.001Z,18.30
2022-09-04T03:33:02.749Z,18.30
2022-09-04T03:35:34.159Z,18.20
2022-09-04T03:38:07.603Z,18.20
2022-09-04T03:40:49.798Z,18.10
2022-09-04T03:43:23.679Z,18.10
2022-09-04T03:46:03.733Z,18.10
2022-09-04T03:48:49.627Z,18.20
2022-09-04T03:51:42.843Z,18.20
2022-09-04T03:54:35.508Z,18.30
2022-09-04T03:57:26.654Z,18.30
2022-09-04T04:00:10.659Z,18.30
2022-09-04T04:02:37.973Z,18.30
2022-09-04T04:05:28.560Z,18.30
2022-09-04T04:08:14.551Z,18.30
2022-09-04T04:10:52.673Z,18.40
2022-09-04T04:13:27.524Z,18.40
2022-09-04T04:16:15.810Z,18.40
2022-09-04T04:19:04.643Z,18.50
2022-09-04T04:22:02.520Z,18.50
2022-09-04T04:24:39.374Z,18.50
2022-09-04T04:27:28.672Z,18.50
2022-09-04T04:30:11.623Z,18.50
2022-09-04T04:32:45.648Z,18.50
2022-09-04T04:35:30.521Z,18.40
2022-09-04T04:38:13.653Z,18.40
2022-09-04T04:40:41.737Z,18.40
2022-09-04T04:43:38.610Z,18.40
2022-09-04T04:46:12.710Z,18.40
2022-09-04T04:49:04.703Z,18.40
2022-09-04T04:51:47.293Z,18.40
2022-09-04T04:54:30.518Z,18.40
2022-09-04T04:57:00.981Z,18.40
2022-09-04T04:59:34.649Z,18.50
2022-09-04T05:02:08.358Z,18.50
2022-09-04T05:04:48.768Z,18.60
2022-09-04T05:07:37.610Z,18.60
2022-09-04T05:10:21.547Z,18.60
2022-09-04T05:12:52.462Z,18.70
2022-09-04T05:15:19.654Z,18.70
2022-09-04T05:17:59.590Z,18.70
2022-09-04T05:20:39.789Z,18.70
2022-09-04T05:23:39.761Z,18.70
2022-09-04T05:26:34.835Z,18.70
2022-09-04T05:29:54.909Z,18.70
2022-09-04T05:32:28.150Z,18.70
2022-09-04T05:35:19.551Z,18.70
2022-09-04T05:38:05.580Z,18.80
2022-09-04T05:40:50.595Z,18.80
2022-09-04T05:43:36.551Z,18.80
2022-09-04T05:46:12.896Z,18.80
2022-09-04T05:48:53.830Z,18.80
2022-09-04T05:51:38.754Z,18.80
2022-09-04T05:54:12.771Z,18.70
2022-09-04T05:56:49.253Z,18.70
2022-09-04T05:59:36.678Z,18.70
2022-09-04T06:02:22.347Z,18.70
2022-09-04T06:05:04.734Z,18.70
2022-09-04T06:07:36.812Z,18.70
2022-09-04T06:10:29.621Z,18.70
2022-09-04T06:13:15.332Z,18.70
2022-09-04T06:15:58.852Z,18.70
2022-09-04T06:18:44.358Z,18.70
2022-09-04T06:21:34.643Z,18.70
2022-09-04T06:24:17.124Z,18.80
2022-09-04T06:27:16.953Z,18.80
2022-09-04T06:29:46.968Z,18.80
2022-09-04T06:32:29.779Z,18.90
2022-09-04T06:35:11.637Z,18.90
2022-09-04T06:37:54.098Z,19.00
2022-09-04T06:40:45.142Z,19.00
2022-09-04T06:43:37.971Z,19.00
2022-09-04T06:46:05.148Z,19.00
2022-09-04T06:48:56.920Z,19.10
2022-09-04T06:51:43.764Z,19.10
2022-09-04T06:54:37.925Z,19.10
2022-09-04T06:57:17.573Z,19.20
2022-09-04T07:00:12.248Z,19.20
2022-09-04T07:02:42.798Z,19.20
2022-09-04T07:05:50.096Z,19.20
2022-09-04T07:08:37.696Z,19.20
2022-09-04T07:11:17.020Z,19.20
2022-09-04T07:14:08.744Z,19.30
2022-09-04T07:16:51.500Z,19.30
2022-09-04T07:19:33.704Z,19.20
2022-09-04T07:22:25.780Z,19.20
2022-09-04T07:25:18.051Z,19.30
2022-09-04T07:28:02.318Z,19.30
2022-09-04T07:30:32.430Z,19.30
2022-09-04T07:33:19.599Z,19.30
2022-09-04T07:35:55.159Z,19.30
2022-09-04T07:38:52.023Z,19.40
2022-09-04T07:41:22.648Z,19.40
2022-09-04T07:44:16.699Z,19.40
2022-09-04T07:47:09.749Z,19.40
2022-09-04T07:49:47.139Z,19.40
2022-09-04T07:52:18.929Z,19.40
2022-09-04T07:55:29.689Z,19.50
2022-09-04T07:58:25.139Z,19.50
2022-09-04T08:00:53.779Z,19.50
2022-09-04T08:03:54.580Z,19.50
2022-09-04T08:06:37.188Z,19.60
2022-09-04T08:09:23.380Z,19.60
2022-09-04T08:12:17.049Z,19.70
2022-09-04T08:15:03.699Z,19.70
2022-09-04T08:17:38.194Z,19.80
2022-09-04T08:20:17.853Z,19.80
2022-09-04T08:23:05.929Z,19.90
2022-09-04T08:28:44.206Z,20.00
2022-09-04T08:31:31.704Z,20.00
2022-09-04T08:34:11.524Z,20.10
2022-09-04T08:36:41.799Z,20.10
2022-09-04T08:39:23.742Z,20.20
2022-09-04T08:42:09.613Z,20.30
2022-09-04T08:45:03.788Z,20.40
2022-09-04T08:47:41.083Z,20.40
2022-09-04T08:50:32.963Z,20.40
2022-09-04T08:53:24.951Z,20.40
2022-09-04T08:56:11.114Z,20.50
2022-09-04T08:58:38.571Z,20.50
2022-09-04T09:01:14.978Z,20.50
2022-09-04T09:03:55.308Z,20.40
2022-09-04T09:06:40.828Z,20.40
2022-09-04T09:09:31.574Z,20.50
2022-09-04T09:12:16.083Z,20.60
2022-09-04T09:15:04.790Z,20.70
2022-09-04T09:17:54.729Z,20.80
2022-09-04T09:20:28.790Z,20.90
2022-09-04T09:23:21.978Z,21.00
2022-09-04T09:26:14.889Z,21.10
2022-09-04T09:28:54.795Z,21.30
2022-09-04T09:31:34.949Z,21.40
2022-09-04T09:34:17.603Z,21.50
2022-09-04T09:37:10.689Z,21.60
2022-09-04T09:39:51.403Z,21.60
2022-09-04T09:42:40.378Z,21.60
2022-09-04T09:45:21.869Z,21.60
2022-09-04T09:48:16.940Z,21.60
2022-09-04T09:51:10.375Z,21.70
2022-09-04T09:53:50.728Z,21.80
2022-09-04T09:56:17.988Z,21.90
2022-09-04T09:58:53.657Z,21.90
2022-09-04T10:01:39.993Z,22.00
2022-09-04T10:04:24.109Z,22.00
2022-09-04T10:07:20.972Z,22.00
2022-09-04T10:10:09.799Z,22.10
2022-09-04T10:13:09.654Z,22.10
2022-09-04T10:15:55.603Z,22.20
2022-09-04T10:19:04.290Z,22.20
2022-09-04T10:21:56.683Z,22.40
2022-09-04T10:24:27.001Z,22.50
2022-09-04T10:27:10.608Z,22.60
2022-09-04T10:29:54.295Z,22.60
2022-09-04T10:32:27.957Z,22.70
2022-09-04T10:35:20.758Z,22.80
2022-09-04T10:37:48.711Z,23.00
2022-09-04T10:40:45.294Z,23.30
2022-09-04T10:43:37.755Z,23.50
2022-09-04T10:46:20.658Z,23.60
2022-09-04T10:48:54.859Z,23.80
2022-09-04T10:51:46.995Z,24.10
2022-09-04T10:54:39.892Z,24.20
2022-09-04T10:57:28.168Z,24.50
2022-09-04T11:00:03.762Z,24.70
2022-09-04T11:02:40.451Z,24.80
2022-09-04T11:05:22.718Z,24.90
2022-09-04T11:07:49.978Z,25.20
2022-09-04T11:10:23.930Z,25.50
2022-09-04T11:12:57.907Z,25.70
2022-09-04T11:15:32.339Z,26.00
2022-09-04T11:17:59.760Z,26.20
2022-09-04T11:20:33.739Z,26.40
2022-09-04T11:23:38.877Z,26.50
2022-09-04T11:26:20.758Z,26.70
2022-09-04T11:28:57.513Z,26.80
2022-09-04T11:31:46.774Z,27.00
2022-09-04T11:34:34.260Z,27.10
2022-09-04T11:37:15.978Z,27.30
2022-09-04T11:39:46.149Z,27.40
2022-09-04T11:42:20.037Z,27.40
2022-09-04T11:45:00.879Z,27.40
2022-09-04T11:48:04.778Z,27.40
2022-09-04T11:50:32.137Z,27.40
2022-09-04T11:53:21.026Z,27.30
2022-09-04T11:55:52.906Z,27.30
2022-09-04T11:58:45.758Z,27.30
2022-09-04T12:01:16.588Z,27.20
2022-09-04T12:04:08.313Z,27.00
2022-09-04T12:07:02.466Z,27.00
2022-09-04T12:09:40.078Z,27.00
2022-09-04T12:12:15.349Z,27.10
2022-09-04T12:15:16.742Z,27.20
2022-09-04T12:17:49.009Z,27.30
2022-09-04T12:20:31.857Z,27.30
2022-09-04T12:23:28.843Z,27.40
2022-09-04T12:26:21.843Z,27.40
2022-09-04T12:29:14.855Z,27.30
2022-09-04T12:31:58.997Z,27.30
2022-09-04T12:34:44.734Z,27.30
2022-09-04T12:37:43.934Z,27.40
2022-09-04T12:40:12.165Z,27.50
2022-09-04T12:42:51.793Z,27.60
2022-09-04T12:45:27.392Z,27.70
2022-09-04T12:48:08.185Z,27.80
2022-09-04T12:50:35.453Z,27.90
2022-09-04T12:53:32.853Z,28.00
2022-09-04T12:56:18.745Z,28.00
2022-09-04T12:58:52.526Z,28.10
2022-09-04T13:01:43.875Z,28.20
2022-09-04T13:04:27.768Z,28.30
2022-09-04T13:07:16.849Z,28.30
2022-09-04T13:09:53.533Z,28.30
2022-09-04T13:12:33.941Z,28.30
2022-09-04T13:15:16.789Z,28.30
2022-09-04T13:18:04.710Z,28.30
2022-09-04T13:20:36.574Z,28.30
2022-09-04T13:23:18.786Z,28.30
2022-09-04T13:26:21.769Z,28.20
2022-09-04T13:29:03.798Z,28.10
2022-09-04T13:31:50.777Z,28.10
2022-09-04T13:34:24.693Z,28.10
2022-09-04T13:37:21.700Z,28.10
2022-09-04T13:40:14.913Z,28.00
2022-09-04T13:43:03.793Z,28.00
2022-09-04T13:45:46.823Z,27.90
2022-09-04T13:48:14.007Z,27.90
2022-09-04T13:50:50.792Z,27.90
2022-09-04T13:53:21.458Z,27.90
2022-09-04T13:56:00.897Z,27.90
2022-09-04T13:58:30.689Z,27.80
2022-09-04T14:01:09.051Z,27.80
2022-09-04T14:03:44.267Z,27.70
2022-09-04T14:06:21.789Z,27.70
2022-09-04T14:09:04.758Z,27.70
2022-09-04T14:11:40.271Z,27.70
2022-09-04T14:14:24.170Z,27.60
2022-09-04T14:16:55.833Z,27.60
2022-09-04T14:19:49.964Z,27.60
2022-09-04T14:22:26.044Z,27.50
2022-09-04T14:25:11.800Z,27.50
2022-09-04T14:28:08.486Z,27.40
2022-09-04T14:30:46.912Z,27.30
2022-09-04T14:33:24.993Z,27.20
2022-09-04T14:36:11.671Z,27.10
2022-09-04T14:38:57.741Z,27.00
2022-09-04T14:41:46.384Z,27.00
2022-09-04T14:44:28.756Z,27.00
2022-09-04T14:47:17.826Z,26.90
2022-09-04T14:49:53.846Z,26.90
2022-09-04T14:52:31.311Z,26.80
2022-09-04T14:54:58.810Z,26.80
2022-09-04T14:57:36.153Z,26.70
2022-09-04T15:00:03.527Z,26.70
2022-09-04T15:02:55.794Z,26.60
2022-09-04T15:05:29.021Z,26.50
2022-09-04T15:08:04.862Z,26.30
2022-09-04T15:10:50.915Z,26.10
2022-09-04T15:13:41.040Z,25.80
2022-09-04T15:16:17.801Z,25.60
2022-09-04T15:19:11.799Z,25.40
2022-09-04T15:22:01.100Z,25.10
2022-09-04T15:24:46.375Z,24.90
2022-09-04T15:27:37.850Z,24.70
2022-09-04T15:30:11.979Z,24.60
2022-09-04T15:32:48.631Z,24.40
2022-09-04T15:35:34.835Z,24.30
2022-09-04T15:38:21.236Z,24.20
2022-09-04T15:41:16.077Z,24.10
2022-09-04T15:44:04.671Z,24.00
2022-09-04T15:47:16.747Z,23.90
2022-09-04T15:49:59.808Z,23.90
2022-09-04T15:52:38.849Z,23.80
2022-09-04T15:55:08.930Z,23.70
2022-09-04T15:57:58.214Z,23.70
2022-09-04T16:00:27.689Z,23.60
2022-09-04T16:03:27.785Z,23.60
2022-09-04T16:06:07.927Z,23.60
2022-09-04T16:08:45.629Z,23.50
2022-09-04T16:11:28.818Z,23.50
2022-09-04T16:14:07.920Z,23.40
2022-09-04T16:16:44.084Z,23.40
2022-09-04T16:19:36.813Z,23.40
2022-09-04T16:22:38.290Z,23.30
2022-09-04T16:25:08.617Z,23.30
2022-09-04T16:27:50.798Z,23.20
2022-09-04T16:30:45.884Z,23.20
2022-09-04T16:33:34.894Z,23.20
2022-09-04T16:36:05.394Z,23.20
2022-09-04T16:38:53.971Z,23.20
2022-09-04T16:41:26.419Z,23.20
2022-09-04T16:44:25.912Z,23.10
2022-09-04T16:47:03.382Z,23.10
2022-09-04T16:49:47.646Z,23.10
2022-09-04T16:52:20.439Z,23.10
2022-09-04T16:54:57.062Z,23.10
2022-09-04T16:57:35.410Z,23.10
2022-09-04T17:00:17.887Z,23.10
2022-09-04T17:03:23.811Z,23.00
2022-09-04T17:06:02.059Z,23.00
2022-09-04T17:08:43.884Z,23.00
2022-09-04T17:11:11.219Z,23.00
2022-09-04T17:13:55.983Z,23.00
2022-09-04T17:16:25.072Z,23.00
2022-09-04T17:19:02.750Z,22.90
2022-09-04T17:27:19.264Z,22.90
2022-09-04T17:28:58.371Z,22.90
2022-09-04T17:29:13.984Z,22.90
2022-09-04T17:31:07.438Z,22.90
2022-09-04T17:40:31.860Z,22.90
2022-09-04T17:40:56.465Z,22.80
2022-09-04T17:41:31.086Z,22.80
2022-09-04T17:42:26.914Z,22.70
2022-09-04T17:45:11.488Z,22.70
2022-09-04T17:47:50.149Z,22.70
2022-09-04T17:50:31.716Z,22.60
2022-09-04T17:53:14.631Z,22.60
2022-09-04T17:56:11.759Z,22.50
2022-09-04T17:59:04.145Z,22.50
2022-09-04T18:01:38.833Z,22.40
2022-09-04T18:04:20.631Z,22.40
2022-09-04T18:08:06.574Z,22.40
2022-09-04T18:10:19.747Z,22.40
2022-09-04T18:12:57.560Z,22.30
2022-09-04T18:15:41.239Z,22.30
2022-09-04T18:18:24.715Z,22.20
2022-09-04T18:21:16.923Z,22.20
2022-09-04T18:23:51.311Z,22.10
2022-09-04T18:26:40.530Z,22.10
2022-09-04T18:30:42.876Z,22.00
2022-09-04T18:37:18.210Z,22.00
2022-09-04T18:37:22.643Z,22.00
2022-09-04T18:38:19.913Z,22.00
2022-09-04T18:45:53.006Z,22.00
2022-09-04T18:50:28.266Z,21.90
2022-09-04T18:50:37.436Z,21.80
2022-09-04T18:50:41.120Z,21.80
2022-09-04T18:52:30.080Z,21.70
2022-09-04T18:55:07.756Z,21.60
2022-09-04T18:57:49.173Z,21.60
2022-09-04T19:00:30.995Z,21.60
2022-09-04T19:03:27.783Z,21.50
2022-09-04T19:06:09.127Z,21.60
2022-09-04T19:08:47.174Z,21.60
2022-09-04T19:11:27.669Z,21.60
2022-09-04T19:14:11.243Z,21.60
2022-09-04T19:16:40.080Z,21.60
2022-09-04T19:19:19.882Z,21.60
2022-09-04T19:22:02.029Z,21.60
2022-09-04T19:24:46.228Z,21.50
2022-09-04T19:27:40.765Z,21.50
2022-09-04T19:30:23.525Z,21.50
2022-09-04T19:32:59.880Z,21.40
2022-09-04T19:35:37.473Z,21.40
2022-09-04T19:43:11.600Z,21.40
2022-09-04T19:45:59.931Z,21.40
2022-09-04T19:46:03.655Z,21.30
2022-09-04T19:47:30.030Z,21.30
2022-09-04T19:53:18.884Z,21.20
2022-09-04T19:53:31.421Z,21.20
2022-09-04T19:56:03.336Z,21.20
2022-09-04T19:58:44.190Z,21.10
2022-09-04T20:01:24.670Z,21.10
2022-09-04T20:03:58.991Z,21.00
2022-09-04T20:06:40.881Z,21.00
2022-09-04T20:09:07.897Z,20.90
2022-09-04T20:11:46.088Z,20.80
2022-09-04T20:14:26.709Z,20.80
2022-09-04T20:17:14.234Z,20.80
2022-09-04T20:19:47.466Z,20.80
2022-09-04T20:22:21.086Z,20.80
2022-09-04T20:25:01.768Z,20.70
2022-09-04T20:27:49.875Z,20.70
2022-09-04T20:30:25.243Z,20.70
2022-09-04T20:32:58.886Z,20.60
2022-09-04T20:35:55.977Z,20.60
2022-09-04T20:38:40.843Z,20.60
2022-09-04T20:41:20.392Z,20.60
2022-09-04T20:43:53.876Z,20.70
2022-09-04T20:52:41.028Z,20.70
2022-09-04T20:52:54.575Z,20.70
2022-09-04T20:52:58.419Z,20.70
2022-09-04T20:55:18.881Z,20.60
2022-09-04T21:03:12.774Z,20.60
2022-09-04T21:03:22.693Z,20.60
2022-09-04T21:04:08.361Z,20.60
2022-09-04T21:06:47.879Z,20.60
2022-09-04T21:09:21.402Z,20.50
2022-09-04T21:12:14.937Z,20.40
2022-09-04T21:14:46.411Z,20.40
2022-09-04T21:17:33.569Z,20.30
2022-09-04T21:20:13.955Z,20.20
2022-09-04T21:22:44.039Z,20.20
2022-09-04T21:25:29.970Z,20.20
2022-09-04T21:28:07.478Z,20.20
2022-09-04T21:30:56.928Z,20.10
2022-09-04T21:33:34.490Z,20.20
2022-09-04T21:36:26.190Z,20.10
2022-09-04T21:39:20.952Z,20.10
2022-09-04T21:42:22.375Z,20.10
2022-09-04T21:44:52.632Z,20.10
2022-09-04T21:47:28.079Z,20.10
2022-09-04T21:50:22.229Z,20.10
2022-09-04T21:53:19.206Z,20.00
2022-09-04T22:00:22.706Z,20.00
2022-09-04T22:02:36.081Z,19.90
2022-09-04T22:02:49.233Z,19.90
2022-09-04T22:05:13.874Z,19.90
2022-09-04T22:11:20.790Z,19.80
2022-09-04T22:13:43.376Z,19.80
2022-09-04T22:14:03.572Z,19.80
2022-09-04T22:16:50.082Z,19.80
2022-09-04T22:19:40.484Z,19.80
2022-09-04T22:22:16.867Z,19.70
2022-09-04T22:25:10.305Z,19.70
2022-09-04T22:28:07.819Z,19.70
2022-09-04T22:30:52.217Z,19.60
2022-09-04T22:33:27.007Z,19.60
2022-09-04T22:35:54.686Z,19.60
2022-09-04T22:38:45.995Z,19.60
2022-09-04T22:41:29.025Z,19.60
2022-09-04T22:43:59.215Z,19.60
2022-09-04T22:46:52.191Z,19.60
2022-09-04T22:49:32.293Z,19.70
2022-09-04T22:52:18.401Z,19.70
2022-09-04T22:55:36.282Z,19.80
2022-09-04T22:58:15.478Z,19.80
2022-09-04T23:01:02.781Z,19.80
2022-09-04T23:03:55.459Z,19.70
2022-09-04T23:12:30.302Z,19.70
2022-09-04T23:13:48.669Z,19.60
2022-09-04T23:14:02.833Z,19.50
2022-09-04T23:15:55.513Z,19.50
2022-09-04T23:21:00.822Z,19.50
2022-09-04T23:26:50.716Z,19.50
2022-09-04T23:26:53.026Z,19.50
2022-09-04T23:27:32.095Z,19.50
2022-09-04T23:30:08.408Z,19.40
2022-09-04T23:33:03.259Z,19.40
2022-09-04T23:35:33.892Z,19.30
2022-09-04T23:38:26.952Z,19.30
2022-09-04T23:40:57.998Z,19.30
2022-09-04T23:43:32.083Z,19.30
2022-09-04T23:46:09.244Z,19.30
2022-09-04T23:48:49.971Z,19.30
2022-09-04T23:51:25.716Z,19.30
2022-09-04T23:54:24.941Z,19.20
2022-09-04T23:57:26.671Z,19.20
2022-09-04T23:59:57.566Z,19.10
